createdAt,value
2018-07-26T00:00:48.004Z,1010.18
2018-07-26T00:01:47.990Z,1010.17
2018-07-26T00:02:47.981Z,1010.17
2018-07-26T00:03:47.987Z,1010.17
2018-07-26T00:04:47.968Z,1010.18
2018-07-26T00:05:47.958Z,1010.15
2018-07-26T00:06:47.938Z,1010.17
2018-07-26T00:07:47.932Z,1010.17
2018-07-26T00:08:47.916Z,1010.17
2018-07-26T00:09:47.910Z,1010.15
2018-07-26T00:10:47.896Z,1010.16
2018-07-26T00:11:47.892Z,1010.19
2018-07-26T00:12:47.877Z,1010.16
2018-07-26T00:13:47.872Z,1010.17
2018-07-26T00:14:47.854Z,1010.18
2018-07-26T00:15:47.846Z,1010.17
2018-07-26T00:16:47.835Z,1010.18
2018-07-26T00:17:47.825Z,1010.18
2018-07-26T00:18:47.810Z,1010.21
2018-07-26T00:19:47.803Z,1010.24
2018-07-26T00:20:47.794Z,1010.19
2018-07-26T00:21:47.779Z,1010.20
2018-07-26T00:22:47.773Z,1010.22
2018-07-26T00:23:47.756Z,1010.21
2018-07-26T00:24:47.743Z,1010.23
2018-07-26T00:25:47.736Z,1010.21
2018-07-26T00:26:47.723Z,1010.24
2018-07-26T00:27:47.713Z,1010.20
2018-07-26T00:28:47.705Z,1010.24
2018-07-26T00:29:47.689Z,1010.22
2018-07-26T00:30:47.685Z,1010.27
2018-07-26T00:31:47.675Z,1010.27
2018-07-26T00:32:47.660Z,1010.28
2018-07-26T00:33:47.647Z,1010.27
2018-07-26T00:34:47.638Z,1010.27
2018-07-26T00:35:47.626Z,1010.28
2018-07-26T00:36:47.618Z,1010.31
2018-07-26T00:37:47.604Z,1010.25
2018-07-26T00:38:47.593Z,1010.19
2018-07-26T00:39:47.585Z,1010.25
2018-07-26T00:40:47.576Z,1010.20
2018-07-26T00:41:47.563Z,1010.23
2018-07-26T00:42:47.551Z,1010.20
2018-07-26T00:43:47.541Z,1010.18
2018-07-26T00:44:47.529Z,1010.19
2018-07-26T00:45:47.517Z,1010.21
2018-07-26T00:46:47.511Z,1010.18
2018-07-26T00:47:47.499Z,1010.20
2018-07-26T00:48:47.495Z,1010.18
2018-07-26T00:49:47.479Z,1010.18
2018-07-26T00:50:47.464Z,1010.20
2018-07-26T00:51:47.453Z,1010.18
2018-07-26T00:52:47.444Z,1010.17
2018-07-26T00:53:47.434Z,1010.18
2018-07-26T00:54:47.424Z,1010.22
2018-07-26T00:55:47.417Z,1010.21
2018-07-26T00:56:47.402Z,1010.21
2018-07-26T00:57:47.389Z,1010.23
2018-07-26T00:58:47.382Z,1010.19
2018-07-26T00:59:47.371Z,1010.20
2018-07-26T01:00:47.357Z,1010.19
2018-07-26T01:01:47.353Z,1010.14
2018-07-26T01:02:47.334Z,1010.18
2018-07-26T01:03:47.323Z,1010.14
2018-07-26T01:04:47.313Z,1010.16
2018-07-26T01:05:47.302Z,1010.12
2018-07-26T01:06:47.289Z,1010.05
2018-07-26T01:07:47.280Z,1010.12
2018-07-26T01:08:47.272Z,1010.10
2018-07-26T01:09:47.260Z,1010.09
2018-07-26T01:10:47.250Z,1010.05
2018-07-26T01:11:47.240Z,1010.10
2018-07-26T01:12:47.231Z,1010.07
2018-07-26T01:13:47.218Z,1010.11
2018-07-26T01:14:47.204Z,1010.06
2018-07-26T01:15:47.194Z,1010.12
2018-07-26T01:16:47.182Z,1010.13
2018-07-26T01:17:47.178Z,1010.08
2018-07-26T01:18:47.166Z,1010.06
2018-07-26T01:19:47.149Z,1010.07
2018-07-26T01:20:47.140Z,1010.05
2018-07-26T01:21:47.127Z,1010.03
2018-07-26T01:22:47.117Z,1010.02
2018-07-26T01:23:47.105Z,1010.04
2018-07-26T01:24:47.103Z,1010.03
2018-07-26T01:25:47.084Z,1010.04
2018-07-26T01:26:47.072Z,1010.02
2018-07-26T01:27:47.064Z,1010.00
2018-07-26T01:28:47.054Z,1009.97
2018-07-26T01:29:47.046Z,1009.99
2018-07-26T01:30:47.031Z,1010.01
2018-07-26T01:31:47.031Z,1009.98
2018-07-26T01:32:47.013Z,1009.99
2018-07-26T01:33:47.001Z,1009.97
2018-07-26T01:34:46.987Z,1009.98
2018-07-26T01:35:46.976Z,1009.98
2018-07-26T01:36:46.966Z,1009.98
2018-07-26T01:37:46.954Z,1010.00
2018-07-26T01:38:46.951Z,1009.99
2018-07-26T01:39:46.936Z,1010.03
2018-07-26T01:40:46.921Z,1009.99
2018-07-26T01:41:46.910Z,1009.97
2018-07-26T01:42:46.903Z,1010.00
2018-07-26T01:43:46.890Z,1009.97
2018-07-26T01:44:46.880Z,1010.00
2018-07-26T01:45:46.867Z,1009.97
2018-07-26T01:46:46.860Z,1009.94
2018-07-26T01:47:46.848Z,1009.96
2018-07-26T01:48:46.836Z,1009.97
2018-07-26T01:49:46.824Z,1009.97
2018-07-26T01:50:46.814Z,1009.98
2018-07-26T01:51:46.801Z,1009.94
2018-07-26T01:52:46.792Z,1010.00
2018-07-26T01:53:46.782Z,1009.95
2018-07-26T01:54:46.770Z,1009.94
2018-07-26T01:55:46.760Z,1009.96
2018-07-26T01:56:46.749Z,1009.98
2018-07-26T01:57:46.736Z,1009.96
2018-07-26T01:58:46.727Z,1009.96
2018-07-26T01:59:46.713Z,1009.92
2018-07-26T02:00:46.704Z,1009.96
2018-07-26T02:01:46.715Z,1009.98
2018-07-26T02:02:46.684Z,1009.97
2018-07-26T02:03:46.672Z,1009.92
2018-07-26T02:04:46.668Z,1009.93
2018-07-26T02:05:46.650Z,1009.86
2018-07-26T02:06:46.637Z,1009.90
2018-07-26T02:07:46.629Z,1009.90
2018-07-26T02:08:46.619Z,1009.87
2018-07-26T02:09:46.605Z,1009.88
2018-07-26T02:10:46.593Z,1009.85
2018-07-26T02:11:46.587Z,1009.83
2018-07-26T02:12:46.573Z,1009.83
2018-07-26T02:13:46.561Z,1009.83
2018-07-26T02:14:46.552Z,1009.82
2018-07-26T02:15:46.542Z,1009.80
2018-07-26T02:16:46.531Z,1009.82
2018-07-26T02:17:46.519Z,1009.81
2018-07-26T02:18:46.507Z,1009.85
2018-07-26T02:19:46.497Z,1009.86
2018-07-26T02:20:46.487Z,1009.92
2018-07-26T02:21:46.475Z,1009.92
2018-07-26T02:22:46.473Z,1009.95
2018-07-26T02:23:46.456Z,1009.99
2018-07-26T02:24:46.442Z,1009.95
2018-07-26T02:25:46.433Z,1009.99
2018-07-26T02:26:46.421Z,1009.99
2018-07-26T02:27:46.413Z,1009.99
2018-07-26T02:28:46.403Z,1010.00
2018-07-26T02:29:46.386Z,1009.98
2018-07-26T02:30:46.376Z,1009.95
2018-07-26T02:31:46.375Z,1009.95
2018-07-26T02:32:46.354Z,1009.91
2018-07-26T02:33:46.343Z,1009.93
2018-07-26T02:34:46.341Z,1009.93
2018-07-26T02:35:46.320Z,1009.93
2018-07-26T02:36:46.336Z,1009.91
2018-07-26T02:37:46.303Z,1009.89
2018-07-26T02:38:46.289Z,1009.92
2018-07-26T02:39:46.280Z,1009.92
2018-07-26T02:40:46.266Z,1009.91
2018-07-26T02:41:46.253Z,1009.91
2018-07-26T02:42:46.247Z,1009.92
2018-07-26T02:43:46.232Z,1009.89
2018-07-26T02:44:46.221Z,1009.94
2018-07-26T02:45:46.210Z,1009.93
2018-07-26T02:46:46.198Z,1009.92
2018-07-26T02:47:46.188Z,1009.90
2018-07-26T02:48:46.181Z,1009.92
2018-07-26T02:49:46.164Z,1009.93
2018-07-26T02:50:46.155Z,1009.87
2018-07-26T02:51:46.146Z,1009.91
2018-07-26T02:52:46.136Z,1009.91
2018-07-26T02:53:46.119Z,1009.95
2018-07-26T02:54:46.112Z,1009.93
2018-07-26T02:55:46.109Z,1009.96
2018-07-26T02:56:46.088Z,1009.97
2018-07-26T02:57:46.082Z,1009.93
2018-07-26T02:58:46.065Z,1009.97
2018-07-26T02:59:46.052Z,1009.97
2018-07-26T03:00:46.051Z,1009.95
2018-07-26T03:01:46.030Z,1009.97
2018-07-26T03:02:46.021Z,1009.92
2018-07-26T03:03:46.010Z,1009.94
2018-07-26T03:04:46.003Z,1009.92
2018-07-26T03:05:45.989Z,1009.92
2018-07-26T03:06:45.976Z,1009.90
2018-07-26T03:07:45.974Z,1009.91
2018-07-26T03:08:45.957Z,1009.95
2018-07-26T03:09:45.942Z,1009.94
2018-07-26T03:10:45.934Z,1009.95
2018-07-26T03:11:45.921Z,1009.92
2018-07-26T03:12:45.912Z,1009.90
2018-07-26T03:13:45.896Z,1009.91
2018-07-26T03:14:45.887Z,1009.91
2018-07-26T03:15:45.885Z,1009.95
2018-07-26T03:16:45.866Z,1009.90
2018-07-26T03:17:45.852Z,1009.89
2018-07-26T03:18:45.842Z,1009.85
2018-07-26T03:19:45.833Z,1009.88
2018-07-26T03:20:45.834Z,1009.83
2018-07-26T03:21:45.808Z,1009.86
2018-07-26T03:22:45.796Z,1009.86
2018-07-26T03:23:45.786Z,1009.87
2018-07-26T03:24:45.777Z,1009.85
2018-07-26T03:25:45.767Z,1009.88
2018-07-26T03:26:45.765Z,1009.85
2018-07-26T03:27:45.741Z,1009.87
2018-07-26T03:28:45.731Z,1009.90
2018-07-26T03:29:45.720Z,1009.87
2018-07-26T03:30:45.706Z,1009.86
2018-07-26T03:31:45.696Z,1009.85
2018-07-26T03:32:45.684Z,1009.85
2018-07-26T03:33:45.674Z,1009.84
2018-07-26T03:34:45.662Z,1009.83
2018-07-26T03:35:45.651Z,1009.85
2018-07-26T03:36:45.639Z,1009.83
2018-07-26T03:37:45.631Z,1009.81
2018-07-26T03:38:45.616Z,1009.80
2018-07-26T03:39:45.605Z,1009.78
2018-07-26T03:40:45.594Z,1009.79
2018-07-26T03:41:45.581Z,1009.79
2018-07-26T03:42:45.572Z,1009.78
2018-07-26T03:43:45.560Z,1009.79
2018-07-26T03:44:45.550Z,1009.81
2018-07-26T03:45:45.539Z,1009.80
2018-07-26T03:46:45.527Z,1009.76
2018-07-26T03:47:45.514Z,1009.79
2018-07-26T03:48:45.505Z,1009.78
2018-07-26T03:49:45.494Z,1009.81
2018-07-26T03:50:45.483Z,1009.80
2018-07-26T03:51:45.474Z,1009.81
2018-07-26T03:52:45.465Z,1009.81
2018-07-26T03:53:45.448Z,1009.84
2018-07-26T03:54:45.438Z,1009.86
2018-07-26T03:55:45.441Z,1009.85
2018-07-26T03:56:45.415Z,1009.87
2018-07-26T03:57:45.415Z,1009.85
2018-07-26T03:58:45.391Z,1009.88
2018-07-26T03:59:45.379Z,1009.87
2018-07-26T04:00:45.371Z,1009.83
2018-07-26T04:01:45.356Z,1009.84
2018-07-26T04:02:45.344Z,1009.87
2018-07-26T04:03:45.336Z,1009.83
2018-07-26T04:04:45.321Z,1009.82
2018-07-26T04:05:45.314Z,1009.84
2018-07-26T04:06:45.296Z,1009.84
2018-07-26T04:07:45.287Z,1009.84
2018-07-26T04:08:45.276Z,1009.85
2018-07-26T04:09:45.264Z,1009.85
2018-07-26T04:10:45.254Z,1009.88
2018-07-26T04:11:45.247Z,1009.85
2018-07-26T04:12:45.236Z,1009.87
2018-07-26T04:13:45.218Z,1009.86
2018-07-26T04:14:45.207Z,1009.87
2018-07-26T04:15:45.197Z,1009.90
2018-07-26T04:16:45.187Z,1009.95
2018-07-26T04:17:45.175Z,1009.94
2018-07-26T04:18:45.166Z,1009.96
2018-07-26T04:19:45.152Z,1009.99
2018-07-26T04:20:45.141Z,1010.01
2018-07-26T04:21:45.131Z,1009.99
2018-07-26T04:22:45.120Z,1010.00
2018-07-26T04:23:45.107Z,1009.98
2018-07-26T04:24:45.099Z,1010.00
2018-07-26T04:25:45.084Z,1010.00
2018-07-26T04:26:45.084Z,1010.01
2018-07-26T04:27:45.061Z,1009.96
2018-07-26T04:28:45.052Z,1010.02
2018-07-26T04:29:45.039Z,1009.99
2018-07-26T04:30:45.035Z,1009.99
2018-07-26T04:31:45.102Z,1010.01
2018-07-26T04:32:45.006Z,1009.99
2018-07-26T04:33:44.996Z,1010.05
2018-07-26T04:34:44.980Z,1010.04
2018-07-26T04:35:44.970Z,1010.07
2018-07-26T04:36:44.960Z,1010.08
2018-07-26T04:37:44.952Z,1010.09
2018-07-26T04:38:44.936Z,1010.12
2018-07-26T04:39:44.924Z,1010.11
2018-07-26T04:40:44.915Z,1010.13
2018-07-26T04:41:44.911Z,1010.18
2018-07-26T04:42:44.892Z,1010.12
2018-07-26T04:43:44.882Z,1010.15
2018-07-26T04:44:44.868Z,1010.17
2018-07-26T04:45:44.856Z,1010.16
2018-07-26T04:46:44.846Z,1010.14
2018-07-26T04:47:44.838Z,1010.14
2018-07-26T04:48:44.824Z,1010.17
2018-07-26T04:49:44.811Z,1010.17
2018-07-26T04:50:44.802Z,1010.14
2018-07-26T04:51:44.791Z,1010.14
2018-07-26T04:52:44.792Z,1010.17
2018-07-26T04:53:44.767Z,1010.17
2018-07-26T04:54:44.764Z,1010.17
2018-07-26T04:55:44.752Z,1010.17
2018-07-26T04:56:44.733Z,1010.17
2018-07-26T04:57:44.722Z,1010.19
2018-07-26T04:58:44.723Z,1010.20
2018-07-26T04:59:44.704Z,1010.15
2018-07-26T05:00:44.689Z,1010.22
2018-07-26T05:01:44.676Z,1010.20
2018-07-26T05:02:44.665Z,1010.19
2018-07-26T05:03:44.655Z,1010.19
2018-07-26T05:04:44.644Z,1010.17
2018-07-26T05:05:44.637Z,1010.20
2018-07-26T05:06:44.630Z,1010.19
2018-07-26T05:07:44.609Z,1010.19
2018-07-26T05:08:44.598Z,1010.21
2018-07-26T05:09:44.588Z,1010.19
2018-07-26T05:10:44.576Z,1010.20
2018-07-26T05:11:44.568Z,1010.20
2018-07-26T05:12:44.555Z,1010.20
2018-07-26T05:13:44.544Z,1010.16
2018-07-26T05:14:44.536Z,1010.12
2018-07-26T05:15:44.521Z,1010.15
2018-07-26T05:16:44.511Z,1010.17
2018-07-26T05:17:44.502Z,1010.17
2018-07-26T05:18:44.495Z,1010.12
2018-07-26T05:19:44.475Z,1010.12
2018-07-26T05:20:44.465Z,1010.15
2018-07-26T05:21:44.455Z,1010.17
2018-07-26T05:22:44.445Z,1010.14
2018-07-26T05:23:44.432Z,1010.14
2018-07-26T05:24:44.422Z,1010.16
2018-07-26T05:25:44.409Z,1010.18
2018-07-26T05:26:44.400Z,1010.22
2018-07-26T05:27:44.437Z,1010.22
2018-07-26T05:28:44.382Z,1010.23
2018-07-26T05:29:44.397Z,1010.20
2018-07-26T05:30:44.360Z,1010.21
2018-07-26T05:31:44.344Z,1010.19
2018-07-26T05:32:44.337Z,1010.22
2018-07-26T05:33:44.324Z,1010.17
2018-07-26T05:34:44.309Z,1010.25
2018-07-26T05:35:44.299Z,1010.21
2018-07-26T05:36:44.292Z,1010.22
2018-07-26T05:37:44.315Z,1010.21
2018-07-26T05:38:44.265Z,1010.22
2018-07-26T05:39:44.257Z,1010.28
2018-07-26T05:40:44.248Z,1010.27
2018-07-26T05:41:44.234Z,1010.26
2018-07-26T05:42:44.223Z,1010.28
2018-07-26T05:43:44.211Z,1010.24
2018-07-26T05:44:44.200Z,1010.26
2018-07-26T05:45:44.189Z,1010.30
2018-07-26T05:46:44.179Z,1010.24
2018-07-26T05:47:44.167Z,1010.26
2018-07-26T05:48:44.160Z,1010.27
2018-07-26T05:49:44.153Z,1010.27
2018-07-26T05:50:44.146Z,1010.28
2018-07-26T05:51:44.131Z,1010.28
2018-07-26T05:52:44.152Z,1010.28
2018-07-26T05:53:44.103Z,1010.25
2018-07-26T05:54:44.098Z,1010.24
2018-07-26T05:55:44.082Z,1010.26
2018-07-26T05:56:44.070Z,1010.28
2018-07-26T05:57:44.059Z,1010.28
2018-07-26T05:58:44.053Z,1010.30
2018-07-26T05:59:44.042Z,1010.35
2018-07-26T06:00:44.029Z,1010.33
2018-07-26T06:01:44.014Z,1010.34
2018-07-26T06:02:44.011Z,1010.34
2018-07-26T06:03:44.003Z,1010.35
2018-07-26T06:04:43.983Z,1010.37
2018-07-26T06:05:43.973Z,1010.38
2018-07-26T06:06:43.961Z,1010.34
2018-07-26T06:07:43.953Z,1010.37
2018-07-26T06:08:43.944Z,1010.34
2018-07-26T06:09:44.001Z,1010.38
2018-07-26T06:10:43.922Z,1010.38
2018-07-26T06:11:43.907Z,1010.39
2018-07-26T06:12:43.902Z,1010.38
2018-07-26T06:13:43.895Z,1010.39
2018-07-26T06:14:43.874Z,1010.41
2018-07-26T06:15:43.863Z,1010.35
2018-07-26T06:16:43.855Z,1010.38
2018-07-26T06:17:43.848Z,1010.38
2018-07-26T06:18:43.832Z,1010.39
2018-07-26T06:19:43.822Z,1010.41
2018-07-26T06:20:43.857Z,1010.42
2018-07-26T06:21:43.798Z,1010.41
2018-07-26T06:22:43.788Z,1010.40
2018-07-26T06:23:43.777Z,1010.41
2018-07-26T06:24:43.820Z,1010.41
2018-07-26T06:25:43.757Z,1010.41
2018-07-26T06:26:43.744Z,1010.43
2018-07-26T06:27:43.739Z,1010.45
2018-07-26T06:28:43.724Z,1010.42
2018-07-26T06:29:43.712Z,1010.43
2018-07-26T06:30:43.706Z,1010.40
2018-07-26T06:31:43.695Z,1010.42
2018-07-26T06:32:43.684Z,1010.41
2018-07-26T06:33:43.697Z,1010.40
2018-07-26T06:34:43.662Z,1010.38
2018-07-26T06:35:43.651Z,1010.42
2018-07-26T06:36:43.638Z,1010.40
2018-07-26T06:37:43.628Z,1010.41
2018-07-26T06:38:43.615Z,1010.40
2018-07-26T06:39:43.606Z,1010.42
2018-07-26T06:40:43.597Z,1010.38
2018-07-26T06:41:43.591Z,1010.42
2018-07-26T06:42:43.577Z,1010.43
2018-07-26T06:43:43.563Z,1010.42
2018-07-26T06:44:43.555Z,1010.42
2018-07-26T06:45:43.543Z,1010.42
2018-07-26T06:46:43.535Z,1010.42
2018-07-26T06:47:43.525Z,1010.45
2018-07-26T06:48:43.516Z,1010.46
2018-07-26T06:49:43.499Z,1010.45
2018-07-26T06:50:43.489Z,1010.48
2018-07-26T06:51:43.477Z,1010.47
2018-07-26T06:52:43.470Z,1010.46
2018-07-26T06:53:43.456Z,1010.48
2018-07-26T06:54:43.450Z,1010.46
2018-07-26T06:55:43.436Z,1010.43
2018-07-26T06:56:43.429Z,1010.48
2018-07-26T06:57:43.418Z,1010.46
2018-07-26T06:58:43.408Z,1010.45
2018-07-26T06:59:43.396Z,1010.49
2018-07-26T07:00:43.396Z,1010.45
2018-07-26T07:01:43.383Z,1010.47
2018-07-26T07:02:43.365Z,1010.45
2018-07-26T07:03:43.352Z,1010.48
2018-07-26T07:04:43.343Z,1010.47
2018-07-26T07:05:43.334Z,1010.49
2018-07-26T07:06:43.321Z,1010.50
2018-07-26T07:07:43.314Z,1010.48
2018-07-26T07:08:43.314Z,1010.51
2018-07-26T07:09:43.289Z,1010.52
2018-07-26T07:10:43.283Z,1010.50
2018-07-26T07:11:43.270Z,1010.49
2018-07-26T07:12:43.260Z,1010.51
2018-07-26T07:13:43.248Z,1010.48
2018-07-26T07:14:43.238Z,1010.51
2018-07-26T07:15:43.231Z,1010.49
2018-07-26T07:16:43.218Z,1010.49
2018-07-26T07:17:43.210Z,1010.50
2018-07-26T07:19:43.192Z,1010.49
2018-07-26T07:20:43.179Z,1010.52
2018-07-26T07:21:43.174Z,1010.52
2018-07-26T07:22:43.167Z,1010.55
2018-07-26T07:23:43.148Z,1010.51
2018-07-26T07:24:43.135Z,1010.48
2018-07-26T07:25:43.128Z,1010.48
2018-07-26T07:26:43.117Z,1010.47
2018-07-26T07:27:43.165Z,1010.50
2018-07-26T07:28:43.097Z,1010.47
2018-07-26T07:29:43.088Z,1010.50
2018-07-26T07:30:43.076Z,1010.48
2018-07-26T07:31:43.070Z,1010.48
2018-07-26T07:32:43.057Z,1010.48
2018-07-26T07:33:43.043Z,1010.46
2018-07-26T07:34:43.033Z,1010.51
2018-07-26T07:35:43.028Z,1010.48
2018-07-26T07:36:43.018Z,1010.48
2018-07-26T07:37:43.025Z,1010.51
2018-07-26T07:38:42.996Z,1010.51
2018-07-26T07:39:42.988Z,1010.49
2018-07-26T07:40:42.971Z,1010.45
2018-07-26T07:41:42.994Z,1010.49
2018-07-26T07:42:42.955Z,1010.50
2018-07-26T07:43:42.945Z,1010.48
2018-07-26T07:44:42.931Z,1010.48
2018-07-26T07:45:42.921Z,1010.46
2018-07-26T07:46:42.957Z,1010.50
2018-07-26T07:47:42.969Z,1010.50
2018-07-26T07:48:42.896Z,1010.50
2018-07-26T07:49:42.888Z,1010.48
2018-07-26T07:50:42.869Z,1010.55
2018-07-26T07:51:42.861Z,1010.54
2018-07-26T07:52:42.852Z,1010.52
2018-07-26T07:53:42.845Z,1010.54
2018-07-26T07:54:42.831Z,1010.52
2018-07-26T07:55:42.821Z,1010.55
2018-07-26T07:56:42.821Z,1010.54
2018-07-26T07:57:42.805Z,1010.53
2018-07-26T07:58:42.792Z,1010.54
2018-07-26T07:59:42.833Z,1010.52
2018-07-26T08:00:42.774Z,1010.51
2018-07-26T08:01:42.763Z,1010.52
2018-07-26T08:02:42.754Z,1010.50
2018-07-26T08:03:42.744Z,1010.53
2018-07-26T08:04:42.734Z,1010.53
2018-07-26T08:05:42.725Z,1010.54
2018-07-26T08:06:42.737Z,1010.51
2018-07-26T08:07:42.712Z,1010.56
2018-07-26T08:08:42.696Z,1010.57
2018-07-26T08:09:42.685Z,1010.55
2018-07-26T08:10:42.677Z,1010.59
2018-07-26T08:11:42.667Z,1010.58
2018-07-26T08:12:42.764Z,1010.57
2018-07-26T08:13:42.648Z,1010.58
2018-07-26T08:14:42.638Z,1010.56
2018-07-26T08:15:42.633Z,1010.58
2018-07-26T08:16:42.628Z,1010.59
2018-07-26T08:17:42.609Z,1010.58
2018-07-26T08:18:42.600Z,1010.58
2018-07-26T08:19:42.595Z,1010.60
2018-07-26T08:20:42.581Z,1010.57
2018-07-26T08:21:42.577Z,1010.57
2018-07-26T08:22:42.562Z,1010.57
2018-07-26T08:23:42.556Z,1010.57
2018-07-26T08:24:42.545Z,1010.55
2018-07-26T08:25:42.534Z,1010.54
2018-07-26T08:26:42.526Z,1010.57
2018-07-26T08:27:42.525Z,1010.58
2018-07-26T08:28:42.508Z,1010.54
2018-07-26T08:29:42.498Z,1010.57
2018-07-26T08:30:42.488Z,1010.62
2018-07-26T08:31:42.480Z,1010.58
2018-07-26T08:32:42.473Z,1010.57
2018-07-26T08:33:42.459Z,1010.57
2018-07-26T08:34:42.467Z,1010.55
2018-07-26T08:36:43.840Z,1010.52
2018-07-26T08:37:42.432Z,1010.55
2018-07-26T08:38:42.425Z,1010.52
2018-07-26T08:39:42.410Z,1010.52
2018-07-26T08:40:42.403Z,1010.48
2018-07-26T08:41:42.388Z,1010.52
2018-07-26T08:42:42.383Z,1010.48
2018-07-26T08:43:42.387Z,1010.47
2018-07-26T08:44:42.370Z,1010.49
2018-07-26T08:45:42.360Z,1010.49
2018-07-26T08:46:42.347Z,1010.46
2018-07-26T08:47:42.336Z,1010.50
2018-07-26T08:48:42.332Z,1010.52
2018-07-26T08:49:42.322Z,1010.49
2018-07-26T08:50:42.311Z,1010.50
2018-07-26T08:51:42.303Z,1010.53
2018-07-26T08:52:42.291Z,1010.51
2018-07-26T08:53:42.285Z,1010.46
2018-07-26T08:54:42.324Z,1010.45
2018-07-26T08:55:42.267Z,1010.53
2018-07-26T08:56:42.260Z,1010.51
2018-07-26T08:57:42.250Z,1010.46
2018-07-26T08:58:42.242Z,1010.46
2018-07-26T08:59:42.239Z,1010.45
2018-07-26T09:00:42.224Z,1010.47
2018-07-26T09:01:42.223Z,1010.48
2018-07-26T09:02:42.230Z,1010.47
2018-07-26T09:03:42.201Z,1010.44
2018-07-26T09:04:42.197Z,1010.43
2018-07-26T09:05:42.187Z,1010.44
2018-07-26T09:06:42.174Z,1010.42
2018-07-26T09:07:42.167Z,1010.43
2018-07-26T09:08:42.159Z,1010.43
2018-07-26T09:09:42.159Z,1010.40
2018-07-26T09:10:42.149Z,1010.43
2018-07-26T09:11:42.134Z,1010.42
2018-07-26T09:12:42.126Z,1010.39
2018-07-26T09:13:42.177Z,1010.38
2018-07-26T09:14:42.109Z,1010.39
2018-07-26T09:15:42.102Z,1010.36
2018-07-26T09:16:42.095Z,1010.39
2018-07-26T09:17:42.084Z,1010.41
2018-07-26T09:18:42.079Z,1010.42
2018-07-26T09:19:42.146Z,1010.43
2018-07-26T09:20:42.070Z,1010.41
2018-07-26T09:21:42.061Z,1010.38
2018-07-26T09:22:42.049Z,1010.45
2018-07-26T09:23:42.039Z,1010.36
2018-07-26T09:24:42.037Z,1010.39
2018-07-26T09:25:42.022Z,1010.35
2018-07-26T09:26:42.013Z,1010.40
2018-07-26T09:27:42.004Z,1010.45
2018-07-26T09:28:42.013Z,1010.43
2018-07-26T09:30:49.573Z,1010.38
2018-07-26T09:31:49.566Z,1010.32
2018-07-26T09:32:49.561Z,1010.36
2018-07-26T09:33:49.547Z,1010.38
2018-07-26T09:34:49.550Z,1010.32
2018-07-26T09:35:49.537Z,1010.27
2018-07-26T09:36:49.524Z,1010.33
2018-07-26T09:37:49.516Z,1010.33
2018-07-26T09:38:49.515Z,1010.36
2018-07-26T09:39:49.500Z,1010.32
2018-07-26T09:47:02.106Z,1010.30
2018-07-26T09:48:02.102Z,1010.28
2018-07-26T09:49:02.089Z,1010.25
2018-07-26T10:05:24.055Z,1010.22
2018-07-26T10:06:24.046Z,1010.23
2018-07-26T10:07:24.034Z,1010.19
2018-07-26T10:08:24.017Z,1010.14
2018-07-26T10:09:24.007Z,1010.21
2018-07-26T10:10:23.996Z,1010.22
2018-07-26T10:11:23.994Z,1010.16
2018-07-26T10:12:23.979Z,1010.17
2018-07-26T10:13:23.971Z,1010.20
2018-07-26T10:14:23.958Z,1010.21
2018-07-26T10:15:23.952Z,1010.19
2018-07-26T10:16:23.987Z,1010.19
2018-07-26T10:17:23.935Z,1010.14
2018-07-26T10:18:23.924Z,1010.13
2018-07-26T10:19:23.916Z,1010.13
2018-07-26T10:20:23.904Z,1010.12
2018-07-26T10:21:23.898Z,1010.11
2018-07-26T10:22:23.887Z,1010.07
2018-07-26T10:23:23.876Z,1010.11
2018-07-26T10:24:23.872Z,1010.09
2018-07-26T10:25:23.866Z,1010.09
2018-07-26T10:26:23.854Z,1010.11
2018-07-26T10:27:23.845Z,1010.13
2018-07-26T10:28:23.835Z,1010.13
2018-07-26T10:29:23.831Z,1010.10
2018-07-26T10:30:23.831Z,1010.08
2018-07-26T10:31:23.812Z,1010.09
2018-07-26T10:32:23.804Z,1010.09
2018-07-26T10:33:23.795Z,1010.12
2018-07-26T10:34:23.786Z,1010.09
2018-07-26T10:35:23.787Z,1010.09
2018-07-26T10:36:23.781Z,1010.07
2018-07-26T10:37:23.769Z,1010.10
2018-07-26T10:38:23.771Z,1010.10
2018-07-26T10:39:23.759Z,1010.06
2018-07-26T10:40:23.747Z,1010.09
2018-07-26T10:41:23.753Z,1010.06
2018-07-26T10:42:23.736Z,1010.06
2018-07-26T10:43:23.727Z,1010.05
2018-07-26T10:44:23.720Z,1010.07
2018-07-26T10:45:23.718Z,1010.04
2018-07-26T10:46:23.710Z,1010.05
2018-07-26T10:47:23.702Z,1010.01
2018-07-26T10:48:23.691Z,1010.03
2018-07-26T10:49:23.683Z,1010.03
2018-07-26T10:50:23.693Z,1010.01
2018-07-26T10:51:23.672Z,1010.04
2018-07-26T10:52:23.671Z,1010.01
2018-07-26T10:53:23.659Z,1010.01
2018-07-26T10:54:23.651Z,1009.95
2018-07-26T10:55:23.656Z,1010.00
2018-07-26T10:56:23.646Z,1009.98
2018-07-26T10:57:23.630Z,1009.94
2018-07-26T10:58:23.628Z,1009.97
2018-07-26T10:59:23.621Z,1009.94
2018-07-26T11:00:23.632Z,1009.95
2018-07-26T11:01:23.603Z,1009.95
2018-07-26T11:02:23.601Z,1009.96
2018-07-26T11:03:23.591Z,1009.93
2018-07-26T11:04:23.584Z,1009.93
2018-07-26T11:05:23.586Z,1009.93
2018-07-26T11:06:23.572Z,1009.96
2018-07-26T11:07:23.564Z,1009.95
2018-07-26T11:08:23.561Z,1009.94
2018-07-26T11:09:23.556Z,1009.93
2018-07-26T11:10:23.545Z,1009.94
2018-07-26T11:11:23.538Z,1009.95
2018-07-26T11:12:23.533Z,1009.90
2018-07-26T11:13:23.528Z,1009.99
2018-07-26T11:14:23.539Z,1009.97
2018-07-26T11:15:23.516Z,1009.92
2018-07-26T11:16:23.507Z,1009.91
2018-07-26T11:17:23.502Z,1009.91
2018-07-26T11:18:23.497Z,1009.90
2018-07-26T11:19:23.492Z,1009.93
2018-07-26T11:20:23.485Z,1009.92
2018-07-26T11:21:23.483Z,1009.88
2018-07-26T11:22:23.468Z,1009.87
2018-07-26T11:23:23.460Z,1009.88
2018-07-26T11:24:23.459Z,1009.84
2018-07-26T11:25:23.453Z,1009.84
2018-07-26T11:26:23.450Z,1009.85
2018-07-26T11:27:23.452Z,1009.85
2018-07-26T11:28:23.429Z,1009.88
2018-07-26T11:29:23.437Z,1009.89
2018-07-26T11:30:23.420Z,1009.86
2018-07-26T11:31:23.412Z,1009.82
2018-07-26T11:32:23.437Z,1009.84
2018-07-26T11:33:23.407Z,1009.77
2018-07-26T11:34:23.396Z,1009.75
2018-07-26T11:35:23.386Z,1009.78
2018-07-26T11:36:23.377Z,1009.77
2018-07-26T11:37:23.378Z,1009.78
2018-07-26T11:38:23.369Z,1009.69
2018-07-26T11:39:23.366Z,1009.73
2018-07-26T11:40:23.366Z,1009.70
2018-07-26T11:41:23.408Z,1009.68
2018-07-26T11:42:23.353Z,1009.75
2018-07-26T11:43:23.336Z,1009.69
2018-07-26T11:44:23.342Z,1009.74
2018-07-26T11:45:23.334Z,1009.72
2018-07-26T11:46:23.317Z,1009.68
2018-07-26T11:47:23.311Z,1009.64
2018-07-26T11:48:23.303Z,1009.68
2018-07-26T11:49:23.301Z,1009.70
2018-07-26T11:50:23.294Z,1009.66
2018-07-26T11:51:23.345Z,1009.68
2018-07-26T11:52:23.281Z,1009.64
2018-07-26T11:53:23.274Z,1009.66
2018-07-26T11:54:23.269Z,1009.64
2018-07-26T11:55:23.260Z,1009.68
2018-07-26T11:56:23.263Z,1009.66
2018-07-26T11:57:23.251Z,1009.66
2018-07-26T11:58:23.242Z,1009.63
2018-07-26T11:59:23.240Z,1009.62
2018-07-26T12:00:23.233Z,1009.64
2018-07-26T12:01:23.224Z,1009.65
2018-07-26T12:02:23.282Z,1009.56
2018-07-26T12:03:23.218Z,1009.58
2018-07-26T12:04:23.205Z,1009.57
2018-07-26T12:05:23.201Z,1009.51
2018-07-26T12:06:23.194Z,1009.49
2018-07-26T12:07:23.190Z,1009.59
2018-07-26T12:08:23.188Z,1009.54
2018-07-26T12:09:23.181Z,1009.51
2018-07-26T12:10:23.174Z,1009.50
2018-07-26T12:11:23.171Z,1009.51
2018-07-26T12:12:23.160Z,1009.49
2018-07-26T12:13:23.154Z,1009.46
2018-07-26T12:14:23.227Z,1009.55
2018-07-26T12:15:23.142Z,1009.55
2018-07-26T12:16:23.137Z,1009.54
2018-07-26T12:17:23.126Z,1009.49
2018-07-26T12:18:23.122Z,1009.48
2018-07-26T12:19:23.113Z,1009.50
2018-07-26T12:20:23.115Z,1009.45
2018-07-26T12:21:23.100Z,1009.51
2018-07-26T12:22:23.100Z,1009.50
2018-07-26T12:23:23.095Z,1009.49
2018-07-26T12:24:23.095Z,1009.49
2018-07-26T12:25:23.076Z,1009.51
2018-07-26T12:26:23.082Z,1009.46
2018-07-26T12:27:23.066Z,1009.45
2018-07-26T12:28:23.060Z,1009.45
2018-07-26T12:29:23.054Z,1009.43
2018-07-26T12:30:23.053Z,1009.42